Time;durP1;ratioP1;P1;durP2;ratioP2;P2;SDS_P1;SDS_P2;PMS_P1;PMS_P2;Temp;Humidity;BMP_temperature;BMP_pressure;BME280_temperature;BME280_humidity;BME280_pressure;Samples;Min_cycle;Max_cycle;Signal;HPM_P1;HPM_P2
2022/12/11 00:02:04;;;;;;;145.97;32.20;;;;;;;5.76;100.00;100994.25;4992987;28;20031;-51
2022/12/11 00:04:30;;;;;;;149.95;35.22;;;;;;;5.89;100.00;100986.69;4992224;28;20027;-51
2022/12/11 00:06:56;;;;;;;143.83;34.67;;;;;;;5.89;100.00;100989.34;4993385;28;20069;-54
2022/12/11 00:09:22;;;;;;;136.67;32.97;;;;;;;5.40;100.00;100991.78;4993897;28;20034;-49
2022/12/11 00:11:47;;;;;;;132.90;34.08;;;;;;;5.37;100.00;100994.75;4993965;28;20058;-51
2022/12/11 00:14:13;;;;;;;147.67;32.67;;;;;;;5.53;100.00;100992.16;4997126;28;20030;-54
2022/12/11 00:16:39;;;;;;;153.35;33.30;;;;;;;5.42;100.00;100997.75;4997463;28;20090;-52
2022/12/11 00:19:04;;;;;;;141.00;33.75;;;;;;;5.15;100.00;100994.28;4997346;28;20054;-48
2022/12/11 00:21:31;;;;;;;146.35;34.45;;;;;;;5.34;100.00;101000.38;4997047;28;20054;-51
2022/12/11 00:23:56;;;;;;;141.13;31.85;;;;;;;5.18;100.00;100996.63;4996841;28;20045;-52
2022/12/11 00:26:21;;;;;;;170.57;34.90;;;;;;;5.66;100.00;100993.56;4995301;28;20098;-51
2022/12/11 00:28:52;;;;;;;136.07;30.98;;;;;;;5.68;100.00;100986.28;4997084;28;20030;-56
2022/12/11 00:31:21;;;;;;;150.63;33.40;;;;;;;5.49;100.00;100990.00;5016302;28;20042;-53
2022/12/11 00:33:48;;;;;;;159.98;35.65;;;;;;;5.64;100.00;100983.09;5014813;28;20022;-51
2022/12/11 00:36:14;;;;;;;;;;;;;;;5.15;100.00;100994.28;5014557;28;21706;-53
2022/12/11 00:38:41;;;;;;;149.70;30.88;;;;;;;5.14;100.00;100988.13;5015696;28;19913;-51
2022/12/11 00:41:07;;;;;;;163.85;37.17;;;;;;;5.26;100.00;100993.19;5013674;28;20050;-50
2022/12/11 00:43:33;;;;;;;180.70;38.47;;;;;;;5.22;100.00;100984.72;5014147;28;20045;-51
2022/12/11 00:45:59;;;;;;;183.02;36.28;;;;;;;5.30;100.00;100983.94;5015338;28;20065;-49
2022/12/11 00:48:24;;;;;;;184.67;37.03;;;;;;;5.20;100.00;100980.56;5015099;28;20030;-50
2022/12/11 00:50:50;;;;;;;162.13;33.73;;;;;;;5.38;100.00;100991.09;4997077;28;20106;-51
2022/12/11 00:53:15;;;;;;;204.07;38.77;;;;;;;5.11;100.00;100985.81;5013171;28;20026;-55
2022/12/11 00:55:41;;;;;;;164.03;31.80;;;;;;;4.90;100.00;100982.66;5014121;28;20054;-51
2022/12/11 00:58:07;;;;;;;162.50;35.30;;;;;;;5.84;100.00;100981.03;5013615;28;20053;-48
2022/12/11 01:00:33;;;;;;;179.07;37.00;;;;;;;5.35;100.00;100975.50;5013687;28;20054;-51
2022/12/11 01:02:59;;;;;;;160.10;37.08;;;;;;;5.44;100.00;100969.25;5010212;28;20057;-54
2022/12/11 01:05:24;;;;;;;177.43;36.13;;;;;;;5.11;100.00;100977.03;5009565;28;20058;-52
2022/12/11 01:07:49;;;;;;;162.73;36.43;;;;;;;5.47;100.00;100979.53;5011662;28;20037;-53
2022/12/11 01:10:24;;;;;;;214.17;36.27;;;;;;;5.31;100.00;100981.13;5008457;28;20026;-53
2022/12/11 01:12:51;;;;;;;157.63;33.72;;;;;;;5.19;100.00;100979.72;5007307;28;20106;-52
2022/12/11 01:15:18;;;;;;;183.50;35.63;;;;;;;5.26;100.00;100977.28;5013381;28;20046;-55
2022/12/11 01:17:43;;;;;;;199.00;37.03;;;;;;;5.07;100.00;100978.31;5010663;28;20034;-50
2022/12/11 01:20:09;;;;;;;182.27;39.35;;;;;;;5.42;100.00;100977.38;5006632;28;20111;-55
2022/12/11 01:22:35;;;;;;;188.75;36.75;;;;;;;6.02;100.00;100983.59;5012419;28;20098;-51
2022/12/11 01:25:00;;;;;;;194.97;37.20;;;;;;;5.54;100.00;100975.28;4995340;28;20062;-51
2022/12/11 01:27:26;;;;;;;213.07;38.22;;;;;;;5.53;100.00;100981.56;5015732;28;20058;-48
2022/12/11 01:29:51;;;;;;;173.60;37.53;;;;;;;5.78;100.00;100976.38;5014951;28;20058;-51
2022/12/11 01:32:16;;;;;;;181.77;39.80;;;;;;;5.43;100.00;100979.03;5012848;28;20061;-50
2022/12/11 01:34:42;;;;;;;238.90;42.65;;;;;;;5.72;100.00;100977.84;5011193;28;20069;-50
2022/12/11 01:37:07;;;;;;;176.20;35.83;;;;;;;5.73;100.00;100978.66;5007040;28;20046;-54
2022/12/11 01:39:33;;;;;;;190.53;37.73;;;;;;;5.51;100.00;100975.56;5013521;28;20026;-49
2022/12/11 01:42:00;;;;;;;174.38;37.58;;;;;;;5.35;100.00;100975.50;5009995;28;20053;-49
2022/12/11 01:44:26;;;;;;;168.65;39.17;;;;;;;5.32;100.00;100981.94;5010835;28;20068;-50
2022/12/11 01:46:52;;;;;;;179.00;36.80;;;;;;;5.77;100.00;100972.06;5010272;28;20050;-51
2022/12/11 01:49:20;;;;;;;188.27;40.93;;;;;;;6.17;100.00;100977.69;5010047;28;20042;-51
2022/12/11 01:51:51;;;;;;;175.32;43.08;;;;;;;5.85;100.00;100977.38;5004707;28;20101;-52
2022/12/11 01:54:20;;;;;;;194.45;41.03;;;;;;;5.75;100.00;100968.72;5010600;28;20053;-53
2022/12/11 01:56:48;;;;;;;188.30;43.53;;;;;;;5.87;100.00;100970.09;5011496;28;20042;-48
2022/12/11 01:59:18;;;;;;;177.48;43.08;;;;;;;5.82;100.00;100964.44;5008183;28;20027;-53
2022/12/11 02:01:50;;;;;;;172.80;39.50;;;;;;;5.84;100.00;100967.75;5012622;28;20045;-54
2022/12/11 02:04:17;;;;;;;181.52;42.47;;;;;;;5.74;100.00;100964.41;5013312;28;20049;-54
2022/12/11 02:06:48;;;;;;;169.85;40.08;;;;;;;5.90;100.00;100955.69;5015068;28;20036;-48
2022/12/11 02:09:19;;;;;;;183.48;40.35;;;;;;;6.13;100.00;100963.88;5014453;28;20039;-58
2022/12/11 02:11:54;;;;;;;183.25;44.45;;;;;;;5.77;100.00;100964.09;5014581;28;20034;-53
2022/12/11 02:14:42;;;;;;;163.85;40.63;;;;;;;5.86;100.00;100957.81;4995315;28;20049;-53
2022/12/11 02:17:34;;;;;;;175.73;42.33;;;;;;;6.03;100.00;100955.25;4997735;28;20034;-55
2022/12/11 02:20:11;;;;;;;170.75;39.55;;;;;;;6.36;100.00;100954.47;5014186;28;20049;-52
2022/12/11 02:22:52;;;;;;;141.57;38.53;;;;;;;6.32;100.00;100961.94;5013487;28;20103;-49
2022/12/11 02:25:27;;;;;;;156.00;40.63;;;;;;;5.87;100.00;100948.00;5013398;28;20034;-54
2022/12/11 02:28:11;;;;;;;138.65;36.17;;;;;;;6.24;100.00;100948.66;5011611;28;20077;-54
2022/12/11 02:30:38;;;;;;;140.55;41.00;;;;;;;6.09;100.00;100940.47;5011922;28;20052;-55
2022/12/11 02:33:06;;;;;;;147.52;37.95;;;;;;;6.35;100.00;100943.00;5014274;28;20038;-54
2022/12/11 02:35:36;;;;;;;151.27;38.65;;;;;;;7.04;100.00;100944.47;5012529;28;20046;-49
2022/12/11 02:38:26;;;;;;;143.95;39.80;;;;;;;7.02;100.00;100947.28;5016975;28;20054;-54
2022/12/11 02:40:54;;;;;;;141.18;36.42;;;;;;;7.07;100.00;100951.25;5013615;28;20077;-54
2022/12/11 02:43:22;;;;;;;124.43;37.17;;;;;;;6.98;100.00;100945.97;5014010;28;20054;-51
2022/12/11 02:45:49;;;;;;;140.85;38.40;;;;;;;7.53;100.00;100953.31;5013887;28;20095;-53
2022/12/11 02:48:16;;;;;;;120.32;36.53;;;;;;;7.49;100.00;100947.47;5014248;28;20033;-52
2022/12/11 02:50:46;;;;;;;129.05;34.15;;;;;;;7.50;100.00;100951.81;5014530;28;20042;-50
2022/12/11 02:53:18;;;;;;;105.80;31.27;;;;;;;7.72;100.00;100944.06;5014278;28;20058;-52
2022/12/11 02:55:44;;;;;;;103.72;31.88;;;;;;;7.59;100.00;100941.97;5012398;28;20042;-52
2022/12/11 02:58:18;;;;;;;111.35;31.35;;;;;;;7.26;100.00;100936.75;5014101;28;20098;-51
2022/12/11 03:00:45;;;;;;;116.45;31.13;;;;;;;6.36;100.00;100936.69;4997099;28;20041;-54
2022/12/11 03:03:11;;;;;;;113.97;33.38;;;;;;;6.90;100.00;100937.97;4997278;28;20030;-51
2022/12/11 03:05:38;;;;;;;109.75;34.50;;;;;;;6.87;100.00;100940.97;5014042;28;20093;-54
2022/12/11 03:08:04;;;;;;;112.35;34.45;;;;;;;7.12;100.00;100938.28;5014021;28;20041;-47
2022/12/11 03:10:29;;;;;;;114.38;35.42;;;;;;;7.17;100.00;100930.63;5013821;28;20054;-50
2022/12/11 03:12:57;;;;;;;105.23;33.07;;;;;;;6.49;100.00;100924.75;5014085;28;20042;-51
2022/12/11 03:15:34;;;;;;;103.47;31.45;;;;;;;6.44;100.00;100919.94;5013946;28;20034;-49
2022/12/11 03:18:11;;;;;;;108.20;31.73;;;;;;;6.40;100.00;100932.69;5011979;28;20034;-54
2022/12/11 03:20:43;;;;;;;105.25;32.33;;;;;;;6.37;100.00;100935.69;5013833;28;20026;-52
2022/12/11 03:23:17;;;;;;;103.25;31.77;;;;;;;6.27;100.00;100929.72;5012038;28;20046;-52
2022/12/11 03:25:54;;;;;;;98.43;32.35;;;;;;;6.52;100.00;100940.34;5012884;28;20038;-52
2022/12/11 03:28:43;;;;;;;107.50;33.25;;;;;;;6.25;100.00;100937.84;5013833;28;20046;-54
2022/12/11 03:31:13;;;;;;;91.53;31.67;;;;;;;6.81;100.00;100936.34;5012674;28;20069;-50
2022/12/11 03:33:42;;;;;;;80.43;26.60;;;;;;;6.56;100.00;100934.53;5013445;28;20035;-51
2022/12/11 03:36:32;;;;;;;83.50;27.92;;;;;;;6.76;100.00;100930.72;5013713;28;20050;-51
2022/12/11 03:39:07;;;;;;;87.22;28.58;;;;;;;6.50;100.00;100926.41;5012391;28;20038;-52
2022/12/11 03:41:34;;;;;;;78.55;27.60;;;;;;;6.80;100.00;100924.06;5013661;28;20106;-53
2022/12/11 03:44:01;;;;;;;76.50;25.65;;;;;;;6.86;100.00;100926.88;5013336;28;20042;-51
2022/12/11 03:46:31;;;;;;;78.65;26.27;;;;;;;6.86;100.00;100924.22;5013822;28;20042;-50
2022/12/11 03:49:04;;;;;;;83.05;28.02;;;;;;;6.55;100.00;100929.41;5015368;28;20030;-50
2022/12/11 03:51:32;;;;;;;85.38;28.88;;;;;;;6.35;100.00;100924.41;5017070;28;20093;-52
2022/12/11 03:53:58;;;;;;;84.97;28.30;;;;;;;6.68;100.00;100924.38;5017581;28;20061;-53
2022/12/11 03:56:27;;;;;;;85.18;28.45;;;;;;;6.47;100.00;100932.88;5016631;28;20038;-54
2022/12/11 03:58:53;;;;;;;67.03;25.05;;;;;;;6.29;100.00;100936.50;5017046;28;20042;-55
2022/12/11 04:01:18;;;;;;;74.53;27.80;;;;;;;6.59;100.00;100928.06;5016869;28;20030;-52
2022/12/11 04:03:44;;;;;;;75.80;26.05;;;;;;;6.25;100.00;100923.75;5016913;28;20099;-50
2022/12/11 04:06:10;;;;;;;71.47;26.67;;;;;;;6.10;100.00;100915.56;5017215;28;20050;-53
2022/12/11 04:08:35;;;;;;;81.15;28.67;;;;;;;6.22;100.00;100916.94;5017069;28;20125;-50
2022/12/11 04:15:00;;;;;;;72.22;26.80;;;;;;;6.09;100.00;100916.56;5015579;28;20038;-52
2022/12/11 04:16:33;;;;;;;74.95;26.83;;;;;;;5.83;100.00;100912.19;5016756;28;20030;-52
2022/12/11 04:24:27;;;;;;;68.15;24.30;;;;;;;5.66;100.00;100908.66;5015885;28;20041;-50
2022/12/11 04:26:52;;;;;;;67.80;24.33;;;;;;;5.91;100.00;100906.06;5016457;28;20034;-52
2022/12/11 04:29:18;;;;;;;65.23;24.17;;;;;;;5.99;100.00;100906.06;5016122;28;20383;-50
2022/12/11 04:31:44;;;;;;;60.10;22.80;;;;;;;5.58;100.00;100899.69;5015771;28;20062;-53
2022/12/11 04:34:10;;;;;;;55.08;22.80;;;;;;;5.89;100.00;100901.75;5016400;28;20282;-52
2022/12/11 04:36:36;;;;;;;52.15;19.75;;;;;;;5.67;100.00;100900.53;5016108;28;20035;-56
2022/12/11 04:39:04;;;;;;;62.25;22.50;;;;;;;5.84;100.00;100898.75;5016457;28;20039;-54
2022/12/11 04:41:30;;;;;;;59.85;22.20;;;;;;;5.95;100.00;100902.09;5016354;28;20054;-52
2022/12/11 04:43:56;;;;;;;65.20;24.25;;;;;;;6.23;100.00;100904.47;5016253;28;20058;-56
2022/12/11 04:46:23;;;;;;;67.60;24.97;;;;;;;6.23;100.00;100907.13;5013622;28;20101;-54
2022/12/11 04:48:50;;;;;;;62.03;24.85;;;;;;;6.32;100.00;100903.50;5015385;28;20041;-51
2022/12/11 04:51:16;;;;;;;61.30;24.73;;;;;;;6.25;100.00;100908.63;5014696;28;20048;-53
2022/12/11 04:53:42;;;;;;;60.35;23.02;;;;;;;6.15;100.00;100898.16;5016061;28;20098;-54
2022/12/11 04:56:10;;;;;;;58.30;23.10;;;;;;;6.38;100.00;100905.47;5014546;28;20053;-55
2022/12/11 04:58:37;;;;;;;55.88;22.83;;;;;;;6.36;100.00;100904.81;5014917;28;20034;-54
2022/12/11 05:01:07;;;;;;;58.70;23.40;;;;;;;6.23;100.00;100909.78;5015153;28;20034;-55
2022/12/11 05:03:33;;;;;;;60.83;24.65;;;;;;;6.13;100.00;100902.81;4998263;28;20045;-54
2022/12/11 05:05:58;;;;;;;59.33;24.40;;;;;;;6.33;100.00;100910.47;5014740;28;20034;-53
2022/12/11 05:08:24;;;;;;;51.30;21.60;;;;;;;6.18;100.00;100904.97;4998247;28;20295;-51
2022/12/11 05:11:00;;;;;;;55.67;21.48;;;;;;;5.81;100.00;100909.69;5013544;28;20062;-49
2022/12/11 05:13:26;;;;;;;58.28;24.10;;;;;;;5.85;100.00;100903.06;5014258;28;20047;-51
2022/12/11 05:15:53;;;;;;;56.13;22.70;;;;;;;6.03;100.00;100904.78;5012751;28;20038;-53
2022/12/11 05:18:18;;;;;;;60.20;23.95;;;;;;;5.97;100.00;100902.75;5014654;28;20050;-50
2022/12/11 05:20:44;;;;;;;63.88;23.40;;;;;;;6.05;100.00;100899.31;5014457;28;20034;-55
2022/12/11 05:23:10;;;;;;;55.87;23.20;;;;;;;6.27;100.00;100903.16;5014261;28;20030;-48
2022/12/11 05:25:36;;;;;;;56.38;23.27;;;;;;;5.84;100.00;100908.53;5014703;28;20053;-49
2022/12/11 05:28:02;;;;;;;54.90;23.40;;;;;;;5.65;100.00;100904.34;5013061;28;20057;-54
2022/12/11 05:30:28;;;;;;;57.80;22.20;;;;;;;5.57;100.00;100907.78;5013826;28;20057;-50
2022/12/11 05:32:53;;;;;;;69.73;27.80;;;;;;;5.78;100.00;100907.38;5014728;28;20061;-48
2022/12/11 05:35:18;;;;;;;54.97;23.90;;;;;;;6.17;100.00;100906.78;5014534;28;20026;-53
2022/12/11 05:37:44;;;;;;;61.40;24.20;;;;;;;5.86;100.00;100906.53;5013899;28;20129;-53
2022/12/11 05:40:14;;;;;;;56.50;24.67;;;;;;;6.09;100.00;100898.81;5014698;28;20038;-49
2022/12/11 05:42:40;;;;;;;56.78;23.92;;;;;;;6.27;100.00;100890.69;5013738;28;20030;-51
2022/12/11 05:45:06;;;;;;;57.30;23.67;;;;;;;6.08;100.00;100889.19;5013970;28;20047;-53
2022/12/11 05:47:31;;;;;;;53.63;23.17;;;;;;;6.30;100.00;100884.22;5012840;28;20031;-52
2022/12/11 05:49:57;;;;;;;60.07;22.90;;;;;;;6.07;100.00;100887.53;5013629;28;20065;-52
2022/12/11 05:52:22;;;;;;;45.13;18.30;;;;;;;5.76;100.00;100879.31;5014058;28;20276;-51
2022/12/11 05:54:49;;;;;;;58.03;24.37;;;;;;;5.78;100.00;100877.34;5014637;28;20030;-50
2022/12/11 05:57:16;;;;;;;53.95;21.90;;;;;;;5.57;100.00;100876.81;5013931;28;20267;-49
2022/12/11 05:59:41;;;;;;;55.10;23.77;;;;;;;5.81;100.00;100877.84;5014281;28;20030;-53
2022/12/11 06:02:06;;;;;;;52.50;23.40;;;;;;;5.70;100.00;100883.44;5013683;28;20042;-53
2022/12/11 06:04:32;;;;;;;59.43;23.50;;;;;;;5.67;100.00;100884.63;5013341;28;20050;-55
2022/12/11 06:06:58;;;;;;;62.58;26.55;;;;;;;5.38;100.00;100885.84;5013630;28;20041;-55
2022/12/11 06:09:23;;;;;;;58.63;24.83;;;;;;;5.65;100.00;100883.13;5012769;28;20098;-56
2022/12/11 06:11:48;;;;;;;57.27;22.83;;;;;;;5.76;100.00;100888.09;5013338;28;20041;-52
2022/12/11 06:14:14;;;;;;;47.22;20.67;;;;;;;5.66;100.00;100893.56;5013316;28;20034;-55
2022/12/11 06:16:40;;;;;;;54.75;22.48;;;;;;;5.69;100.00;100890.59;5012976;28;20037;-53
2022/12/11 06:19:05;;;;;;;53.60;21.60;;;;;;;5.82;100.00;100903.41;5013375;28;20038;-54
2022/12/11 06:21:32;;;;;;;45.90;20.40;;;;;;;5.62;100.00;100904.66;5013091;28;20102;-52
2022/12/11 06:24:00;;;;;;;44.45;19.52;;;;;;;5.56;100.00;100888.41;5013001;28;20204;-54
2022/12/11 06:26:27;;;;;;;45.30;19.05;;;;;;;5.97;100.00;100898.28;5012863;28;20034;-56
2022/12/11 06:28:52;;;;;;;47.43;21.10;;;;;;;6.07;100.00;100903.47;5012506;28;20061;-52
2022/12/11 06:31:19;;;;;;;48.40;19.37;;;;;;;5.87;100.00;100900.22;5013401;28;20097;-51
2022/12/11 06:33:44;;;;;;;49.87;21.13;;;;;;;6.09;100.00;100903.28;5011832;28;20034;-53
2022/12/11 06:36:13;;;;;;;48.50;21.00;;;;;;;6.35;100.00;100905.00;5012042;28;20279;-53
2022/12/11 06:38:39;;;;;;;49.45;20.88;;;;;;;5.62;100.00;100896.72;5012910;28;20034;-55
2022/12/11 06:41:06;;;;;;;45.63;20.10;;;;;;;6.58;100.00;100899.81;5013770;28;20034;-55
2022/12/11 06:43:34;;;;;;;43.00;18.73;;;;;;;6.44;100.00;100906.66;5013255;28;20045;-54
2022/12/11 06:46:03;;;;;;;44.85;19.45;;;;;;;6.35;100.00;100897.84;5012167;28;20042;-55
2022/12/11 06:48:28;;;;;;;51.45;20.45;;;;;;;6.30;100.00;100889.53;5012137;28;20115;-53
2022/12/11 06:50:54;;;;;;;51.10;20.17;;;;;;;6.23;100.00;100900.00;5013485;28;20042;-54
2022/12/11 06:53:19;;;;;;;44.72;19.05;;;;;;;6.13;100.00;100910.78;5013599;28;20037;-54
2022/12/11 06:55:45;;;;;;;47.53;20.23;;;;;;;5.99;100.00;100898.94;5012014;28;20057;-52
2022/12/11 06:58:10;;;;;;;46.77;17.90;;;;;;;5.26;100.00;100906.50;5013123;28;20106;-51
2022/12/11 07:00:37;;;;;;;47.47;16.77;;;;;;;5.73;100.00;100904.34;5012490;28;20041;-51
2022/12/11 07:03:04;;;;;;;42.83;18.60;;;;;;;5.64;100.00;100902.69;5012586;28;20034;-56
2022/12/11 07:05:30;;;;;;;45.58;19.13;;;;;;;5.71;100.00;100907.19;5012587;28;20034;-54
2022/12/11 07:07:56;;;;;;;48.90;17.67;;;;;;;6.11;100.00;100915.41;5012508;28;20045;-53
2022/12/11 07:10:22;;;;;;;43.88;16.25;;;;;;;5.95;100.00;100908.22;5012797;28;20022;-52
2022/12/11 07:12:48;;;;;;;44.28;18.42;;;;;;;5.97;100.00;100910.72;5012561;28;20038;-49
2022/12/11 07:15:13;;;;;;;40.00;15.87;;;;;;;5.93;100.00;100912.03;5012354;28;20034;-52
2022/12/11 07:17:39;;;;;;;49.80;17.23;;;;;;;6.06;100.00;100916.91;5012515;28;20347;-53
2022/12/11 07:20:05;;;;;;;42.53;17.43;;;;;;;5.93;100.00;100917.34;5010790;28;20034;-52
2022/12/11 07:22:31;;;;;;;38.53;15.90;;;;;;;5.23;100.00;100914.78;5011870;28;20030;-54
2022/12/11 07:24:56;;;;;;;31.17;13.17;;;;;;;5.40;100.00;100917.50;5012565;28;20058;-53
2022/12/11 07:27:22;;;;;;;36.43;14.53;;;;;;;5.81;100.00;100915.00;5011960;28;20276;-52
2022/12/11 07:29:49;;;;;;;39.75;15.70;;;;;;;5.96;100.00;100909.03;5011851;28;20170;-54
2022/12/11 07:32:14;;;;;;;37.72;15.00;;;;;;;6.22;100.00;100919.59;5011255;28;20069;-52
2022/12/11 07:34:42;;;;;;;41.08;16.02;;;;;;;6.25;100.00;100913.13;5010890;28;20034;-54
2022/12/11 07:37:07;;;;;;;33.88;14.90;;;;;;;5.42;100.00;100921.69;5012024;28;20065;-52
2022/12/11 07:39:33;;;;;;;44.55;18.48;;;;;;;5.29;100.00;100918.63;5011322;28;20038;-51
2022/12/11 07:41:58;;;;;;;41.93;17.07;;;;;;;5.44;100.00;100905.59;5012230;28;20035;-53
2022/12/11 07:44:24;;;;;;;35.00;14.43;;;;;;;5.75;100.00;100912.97;5012457;28;20045;-53
2022/12/11 07:46:49;;;;;;;41.30;15.87;;;;;;;5.83;100.00;100928.94;5011689;28;20034;-51
2022/12/11 07:49:15;;;;;;;46.03;17.07;;;;;;;5.77;100.00;100924.28;5011863;28;20035;-53
2022/12/11 07:51:41;;;;;;;44.83;15.70;;;;;;;6.03;100.00;100934.00;5011618;28;20351;-55
2022/12/11 07:54:15;;;;;;;44.38;15.52;;;;;;;6.02;100.00;100924.38;5011672;28;20041;-50
2022/12/11 07:56:44;;;;;;;38.42;15.35;;;;;;;6.14;100.00;100931.03;5010876;28;20065;-54
2022/12/11 07:59:09;;;;;;;39.60;15.40;;;;;;;6.26;100.00;100936.03;5011621;28;20027;-50
2022/12/11 08:01:37;;;;;;;33.40;14.70;;;;;;;6.12;100.00;100938.31;5012239;28;20031;-53
2022/12/11 08:04:04;;;;;;;;;;;;;;;6.23;100.00;100923.91;5011956;28;20093;-50
2022/12/11 08:06:33;;;;;;;39.70;16.90;;;;;;;6.32;100.00;100932.72;5011658;28;19921;-51
2022/12/11 08:09:01;;;;;;;37.58;16.33;;;;;;;6.63;100.00;100929.38;5011499;28;20046;-49
2022/12/11 08:11:27;;;;;;;44.40;17.60;;;;;;;6.68;100.00;100924.38;5012120;28;20041;-50
2022/12/11 08:13:53;;;;;;;35.97;16.05;;;;;;;6.84;100.00;100926.22;5011477;28;20046;-50
2022/12/11 08:16:19;;;;;;;34.80;15.48;;;;;;;6.48;100.00;100923.09;5007977;28;20045;-52
2022/12/11 08:18:46;;;;;;;38.33;15.75;;;;;;;6.48;100.00;100921.25;5011041;28;20034;-55
2022/12/11 08:21:23;;;;;;;38.95;17.98;;;;;;;6.53;100.00;100915.44;5011033;28;20057;-47
2022/12/11 08:23:50;;;;;;;37.67;17.45;;;;;;;6.48;100.00;100917.78;5010569;28;20039;-52
2022/12/11 08:26:19;;;;;;;45.28;19.02;;;;;;;6.59;100.00;100909.44;5011202;28;20030;-48
2022/12/11 08:28:45;;;;;;;40.40;17.02;;;;;;;6.62;100.00;100913.63;5010470;28;20049;-49
2022/12/11 08:31:12;;;;;;;44.40;18.83;;;;;;;6.65;100.00;100914.09;5009635;28;20042;-52
2022/12/11 08:33:38;;;;;;;33.80;15.65;;;;;;;6.76;100.00;100912.09;5012569;28;20275;-52
2022/12/11 08:36:06;;;;;;;41.40;18.50;;;;;;;6.63;100.00;100909.97;5013426;28;20065;-52
2022/12/11 08:38:32;;;;;;;41.70;17.02;;;;;;;6.56;100.00;100913.25;5012498;28;20038;-52
2022/12/11 08:40:58;;;;;;;39.72;18.98;;;;;;;6.57;100.00;100906.97;5014400;28;20502;-52
2022/12/11 08:43:24;;;;;;;38.30;17.65;;;;;;;6.44;100.00;100911.97;5013881;28;20042;-53
2022/12/11 08:45:50;;;;;;;39.00;16.05;;;;;;;6.37;100.00;100908.31;5014694;28;20049;-55
2022/12/11 08:48:16;;;;;;;39.80;17.47;;;;;;;6.11;100.00;100906.59;5014220;28;20094;-52
2022/12/11 08:50:41;;;;;;;37.45;15.73;;;;;;;6.26;100.00;100904.97;5012826;28;20102;-55
2022/12/11 08:53:07;;;;;;;38.07;15.57;;;;;;;6.00;100.00;100902.44;5010666;28;20035;-49
2022/12/11 08:55:32;;;;;;;33.67;15.35;;;;;;;6.25;100.00;100899.84;5009218;28;20111;-48
2022/12/11 08:57:58;;;;;;;33.83;14.30;;;;;;;6.31;100.00;100893.84;5008031;28;20038;-54
2022/12/11 09:00:23;;;;;;;39.90;16.63;;;;;;;6.35;100.00;100897.03;5009189;28;20272;-49
2022/12/11 09:02:49;;;;;;;33.30;15.47;;;;;;;6.17;100.00;100896.16;5006618;28;20095;-55
2022/12/11 09:05:15;;;;;;;36.53;15.83;;;;;;;6.30;100.00;100905.47;5010929;28;20271;-51
2022/12/11 09:07:40;;;;;;;35.77;16.23;;;;;;;6.17;100.00;100901.47;5010379;28;20038;-55
2022/12/11 09:10:07;;;;;;;31.90;14.03;;;;;;;6.32;100.00;100908.81;4994715;28;20288;-49
2022/12/11 09:12:33;;;;;;;39.08;15.82;;;;;;;6.45;100.00;100897.69;5012705;28;20037;-51
2022/12/11 09:14:59;;;;;;;40.97;17.00;;;;;;;6.15;100.00;100903.47;5007365;28;20042;-55
2022/12/11 09:17:26;;;;;;;43.23;16.87;;;;;;;6.38;100.00;100908.13;5010608;28;20041;-52
2022/12/11 09:19:51;;;;;;;37.40;17.23;;;;;;;6.51;100.00;100901.50;5004623;28;20041;-54
2022/12/11 09:22:18;;;;;;;37.35;15.52;;;;;;;6.35;100.00;100897.03;5011101;28;20035;-48
2022/12/11 09:24:45;;;;;;;38.47;16.77;;;;;;;6.37;100.00;100895.84;5007699;28;20034;-49
2022/12/11 09:27:10;;;;;;;35.00;15.30;;;;;;;6.39;100.00;100896.50;5012747;28;20057;-47
2022/12/11 09:29:36;;;;;;;35.80;15.43;;;;;;;5.83;100.00;100889.13;5010198;28;20288;-54
2022/12/11 09:32:02;;;;;;;41.45;15.00;;;;;;;6.24;100.00;100895.53;5014066;28;20073;-54
2022/12/11 09:34:28;;;;;;;31.63;14.02;;;;;;;6.06;100.00;100893.00;5009431;28;20050;-54
2022/12/11 09:36:53;;;;;;;33.93;15.40;;;;;;;6.13;100.00;100900.16;5014707;28;20038;-55
2022/12/11 09:39:19;;;;;;;29.50;13.05;;;;;;;6.43;100.00;100895.16;5015249;28;20050;-51
2022/12/11 09:41:54;;;;;;;34.97;14.00;;;;;;;6.06;100.00;100893.00;5015080;28;20058;-56
2022/12/11 09:44:33;;;;;;;31.90;13.77;;;;;;;6.07;100.00;100898.16;5013359;28;20260;-53
2022/12/11 09:46:59;;;;;;;31.33;12.98;;;;;;;6.14;100.00;100896.50;5013252;28;20129;-53
2022/12/11 09:49:41;;;;;;;34.03;15.23;;;;;;;6.18;100.00;100891.69;5014412;28;20126;-52
2022/12/11 09:52:25;;;;;;;36.33;14.82;;;;;;;6.20;100.00;100891.53;5014899;28;20045;-50
2022/12/11 09:55:02;;;;;;;33.53;14.50;;;;;;;6.14;100.00;100891.19;5013399;28;20054;-53
2022/12/11 09:57:55;;;;;;;36.85;15.13;;;;;;;6.29;100.00;100879.91;5015047;28;20085;-52
2022/12/11 10:00:44;;;;;;;31.92;14.23;;;;;;;6.08;100.00;100886.53;4999169;28;20030;-54
2022/12/11 10:03:27;;;;;;;34.13;14.35;;;;;;;6.62;100.00;100879.88;5014540;28;20061;-53
2022/12/11 10:06:16;;;;;;;44.00;16.15;;;;;;;6.36;100.00;100882.75;5014483;28;20061;-53
2022/12/11 10:09:18;;;;;;;39.05;15.60;;;;;;;6.30;100.00;100885.03;5012704;28;20030;-50
2022/12/11 10:12:15;;;;;;;33.78;14.30;;;;;;;6.46;100.00;100896.69;5013012;28;20038;-57
2022/12/11 10:14:56;;;;;;;40.63;15.73;;;;;;;6.39;100.00;100893.03;5012443;28;20102;-53
2022/12/11 10:17:27;;;;;;;40.25;16.13;;;;;;;6.21;100.00;100893.19;4996505;28;20037;-52
2022/12/11 10:19:59;;;;;;;34.15;14.45;;;;;;;6.16;100.00;100885.72;5013190;28;20043;-53
2022/12/11 10:22:31;;;;;;;32.15;14.02;;;;;;;6.02;100.00;100887.22;5014396;28;20026;-51
2022/12/11 10:25:01;;;;;;;34.08;14.55;;;;;;;6.02;100.00;100882.72;5014191;28;20065;-54
2022/12/11 10:27:32;;;;;;;38.83;15.57;;;;;;;6.21;100.00;100887.88;4995193;28;20030;-49
2022/12/11 10:30:15;;;;;;;31.77;14.35;;;;;;;6.22;100.00;100876.25;5008737;28;20046;-51
2022/12/11 10:32:49;;;;;;;32.13;14.93;;;;;;;6.49;100.00;100875.09;4999300;28;20038;-53
2022/12/11 10:35:44;;;;;;;37.70;15.85;;;;;;;6.66;100.00;100872.41;4983441;28;20030;-48
2022/12/11 10:38:13;;;;;;;36.28;14.07;;;;;;;6.53;100.00;100872.94;4999160;28;20042;-49
2022/12/11 10:40:44;;;;;;;39.97;15.32;;;;;;;6.59;100.00;100866.94;5002141;28;20030;-52
2022/12/11 10:43:09;;;;;;;37.30;15.10;;;;;;;6.64;100.00;100869.91;5000897;28;20039;-53
2022/12/11 10:45:36;;;;;;;33.97;14.88;;;;;;;6.50;100.00;100871.44;5001581;28;20052;-54
2022/12/11 10:48:04;;;;;;;34.95;15.90;;;;;;;6.25;100.00;100875.94;4999926;28;20030;-51
2022/12/11 10:50:30;;;;;;;36.78;14.85;;;;;;;6.65;100.00;100871.56;5000305;28;20030;-52
2022/12/11 10:52:57;;;;;;;36.00;17.20;;;;;;;6.16;100.00;100870.59;4998628;28;20057;-56
2022/12/11 10:55:44;;;;;;;35.30;15.25;;;;;;;6.68;100.00;100871.22;4997925;28;20030;-50
2022/12/11 10:58:22;;;;;;;38.08;17.00;;;;;;;6.35;100.00;100870.47;4996370;28;20031;-53
2022/12/11 11:01:06;;;;;;;35.78;15.38;;;;;;;6.74;100.00;100859.09;5001586;28;20081;-48
2022/12/11 11:03:35;;;;;;;39.60;15.75;;;;;;;6.09;100.00;100850.19;5001035;28;20030;-53
2022/12/11 11:06:17;;;;;;;38.35;15.85;;;;;;;6.07;100.00;100852.19;5000127;28;20045;-53
2022/12/11 11:08:49;;;;;;;42.33;15.70;;;;;;;6.00;100.00;100860.78;5004580;28;20035;-52
2022/12/11 11:11:33;;;;;;;38.67;16.05;;;;;;;6.20;100.00;100857.00;4999523;28;20061;-56
2022/12/11 11:14:15;;;;;;;39.33;17.33;;;;;;;6.16;100.00;100859.97;4999783;28;20042;-54
2022/12/11 11:16:43;;;;;;;39.00;15.23;;;;;;;6.44;100.00;100859.63;5000562;28;20034;-53
2022/12/11 11:19:37;;;;;;;37.72;14.93;;;;;;;6.32;100.00;100856.50;4999149;28;20038;-50
2022/12/11 11:22:11;;;;;;;42.22;15.90;;;;;;;6.38;100.00;100854.19;4994267;28;20038;-52
2022/12/11 11:24:50;;;;;;;40.88;15.68;;;;;;;6.63;100.00;100857.63;4996328;28;20030;-54